sensor_id;sensor_type;location;lat;lon;timestamp;temperature;humidity
18153;DHT22;9202;51.578;7.734;2023-04-24T00:01:47;11.60;99.90
18153;DHT22;9202;51.578;7.734;2023-04-24T00:03:50;11.50;99.90
18153;DHT22;9202;51.578;7.734;2023-04-24T00:05:53;11.50;99.90
18153;DHT22;9202;51.578;7.734;2023-04-24T00:07:56;11.50;99.90
18153;DHT22;9202;51.578;7.734;2023-04-24T00:09:58;11.50;99.90
18153;DHT22;9202;51.578;7.734;2023-04-24T00:12:01;11.50;99.90
18153;DHT22;9202;51.578;7.734;2023-04-24T00:14:06;11.40;99.90
18153;DHT22;9202;51.578;7.734;2023-04-24T00:16:08;11.30;99.90
18153;DHT22;9202;51.578;7.734;2023-04-24T00:18:11;11.20;99.90
18153;DHT22;9202;51.578;7.734;2023-04-24T00:20:13;11.10;99.90
18153;DHT22;9202;51.578;7.734;2023-04-24T00:22:16;11.10;99.90
18153;DHT22;9202;51.578;7.734;2023-04-24T00:24:19;11.00;99.90
18153;DHT22;9202;51.578;7.734;2023-04-24T00:26:22;11.00;99.90
18153;DHT22;9202;51.578;7.734;2023-04-24T00:28:24;11.00;99.90
18153;DHT22;9202;51.578;7.734;2023-04-24T00:30:27;10.90;99.90
18153;DHT22;9202;51.578;7.734;2023-04-24T00:32:29;11.00;99.90
18153;DHT22;9202;51.578;7.734;2023-04-24T00:34:32;11.00;99.90
18153;DHT22;9202;51.578;7.734;2023-04-24T00:36:35;10.90;99.90
18153;DHT22;9202;51.578;7.734;2023-04-24T00:38:37;10.90;99.90
18153;DHT22;9202;51.578;7.734;2023-04-24T00:40:40;10.90;99.90
18153;DHT22;9202;51.578;7.734;2023-04-24T00:42:43;11.00;99.90
18153;DHT22;9202;51.578;7.734;2023-04-24T00:44:46;11.00;99.90
18153;DHT22;9202;51.578;7.734;2023-04-24T00:46:49;11.10;99.90
18153;DHT22;9202;51.578;7.734;2023-04-24T00:48:54;11.10;99.90
18153;DHT22;9202;51.578;7.734;2023-04-24T00:50:57;11.20;99.90
18153;DHT22;9202;51.578;7.734;2023-04-24T00:53:03;11.20;99.90
18153;DHT22;9202;51.578;7.734;2023-04-24T00:55:06;11.20;99.90
18153;DHT22;9202;51.578;7.734;2023-04-24T00:57:10;11.20;99.90
18153;DHT22;9202;51.578;7.734;2023-04-24T00:59:13;11.20;99.90
18153;DHT22;9202;51.578;7.734;2023-04-24T01:01:15;11.20;99.90
18153;DHT22;9202;51.578;7.734;2023-04-24T01:05:34;11.10;99.90
18153;DHT22;9202;51.578;7.734;2023-04-24T01:07:37;11.00;99.90
18153;DHT22;9202;51.578;7.734;2023-04-24T01:09:40;11.00;99.90
18153;DHT22;9202;51.578;7.734;2023-04-24T01:11:43;11.00;99.90
18153;DHT22;9202;51.578;7.734;2023-04-24T01:13:47;11.00;99.90
18153;DHT22;9202;51.578;7.734;2023-04-24T01:15:50;11.00;99.90
18153;DHT22;9202;51.578;7.734;2023-04-24T01:17:52;11.00;99.90
18153;DHT22;9202;51.578;7.734;2023-04-24T01:19:56;10.90;99.90
18153;DHT22;9202;51.578;7.734;2023-04-24T01:21:59;11.00;99.90
18153;DHT22;9202;51.578;7.734;2023-04-24T01:24:04;10.90;99.90
18153;DHT22;9202;51.578;7.734;2023-04-24T01:26:07;11.00;99.90
18153;DHT22;9202;51.578;7.734;2023-04-24T01:28:10;11.00;99.90
18153;DHT22;9202;51.578;7.734;2023-04-24T01:30:14;11.00;99.90
18153;DHT22;9202;51.578;7.734;2023-04-24T01:32:16;10.90;99.90
18153;DHT22;9202;51.578;7.734;2023-04-24T01:34:20;11.00;99.90
18153;DHT22;9202;51.578;7.734;2023-04-24T01:36:23;11.00;99.90
18153;DHT22;9202;51.578;7.734;2023-04-24T01:38:28;11.00;99.90
18153;DHT22;9202;51.578;7.734;2023-04-24T01:40:31;11.00;99.90
18153;DHT22;9202;51.578;7.734;2023-04-24T01:42:33;11.00;99.90
18153;DHT22;9202;51.578;7.734;2023-04-24T01:44:36;11.00;99.90
18153;DHT22;9202;51.578;7.734;2023-04-24T01:46:39;11.00;99.90
18153;DHT22;9202;51.578;7.734;2023-04-24T01:48:42;11.00;99.90
18153;DHT22;9202;51.578;7.734;2023-04-24T01:50:44;11.00;99.90
18153;DHT22;9202;51.578;7.734;2023-04-24T01:52:47;11.00;99.90
18153;DHT22;9202;51.578;7.734;2023-04-24T01:54:50;11.00;99.90
18153;DHT22;9202;51.578;7.734;2023-04-24T01:56:54;11.00;99.90
18153;DHT22;9202;51.578;7.734;2023-04-24T01:58:57;10.90;99.90
18153;DHT22;9202;51.578;7.734;2023-04-24T02:01:00;11.00;99.90
18153;DHT22;9202;51.578;7.734;2023-04-24T02:03:03;10.90;99.90
18153;DHT22;9202;51.578;7.734;2023-04-24T02:05:06;10.90;99.90
18153;DHT22;9202;51.578;7.734;2023-04-24T02:07:11;11.00;99.90
18153;DHT22;9202;51.578;7.734;2023-04-24T02:09:14;11.00;99.90
18153;DHT22;9202;51.578;7.734;2023-04-24T02:11:16;11.00;99.90
18153;DHT22;9202;51.578;7.734;2023-04-24T02:13:19;10.90;99.90
18153;DHT22;9202;51.578;7.734;2023-04-24T02:15:21;11.00;99.90
18153;DHT22;9202;51.578;7.734;2023-04-24T02:17:24;11.00;99.90
18153;DHT22;9202;51.578;7.734;2023-04-24T02:19:27;11.00;99.90
18153;DHT22;9202;51.578;7.734;2023-04-24T02:21:29;11.00;99.90
18153;DHT22;9202;51.578;7.734;2023-04-24T02:23:32;11.00;99.90
18153;DHT22;9202;51.578;7.734;2023-04-24T02:25:35;11.10;99.90
18153;DHT22;9202;51.578;7.734;2023-04-24T02:27:38;11.10;99.90
18153;DHT22;9202;51.578;7.734;2023-04-24T02:29:40;11.10;99.90
18153;DHT22;9202;51.578;7.734;2023-04-24T02:31:43;11.10;99.90
18153;DHT22;9202;51.578;7.734;2023-04-24T02:33:48;11.10;99.90
18153;DHT22;9202;51.578;7.734;2023-04-24T02:35:50;11.20;99.90
18153;DHT22;9202;51.578;7.734;2023-04-24T02:37:53;11.10;99.90
18153;DHT22;9202;51.578;7.734;2023-04-24T02:39:55;11.10;99.90
18153;DHT22;9202;51.578;7.734;2023-04-24T02:41:58;11.10;99.90
18153;DHT22;9202;51.578;7.734;2023-04-24T02:44:01;11.10;99.90
18153;DHT22;9202;51.578;7.734;2023-04-24T02:46:04;11.10;99.90
18153;DHT22;9202;51.578;7.734;2023-04-24T02:48:06;11.10;99.90
18153;DHT22;9202;51.578;7.734;2023-04-24T02:50:09;11.10;99.90
18153;DHT22;9202;51.578;7.734;2023-04-24T02:52:12;11.10;99.90
18153;DHT22;9202;51.578;7.734;2023-04-24T02:54:15;11.10;99.90
18153;DHT22;9202;51.578;7.734;2023-04-24T02:56:17;11.10;99.90
18153;DHT22;9202;51.578;7.734;2023-04-24T02:58:20;11.10;99.90
18153;DHT22;9202;51.578;7.734;2023-04-24T03:00:23;11.10;99.90
18153;DHT22;9202;51.578;7.734;2023-04-24T03:02:25;11.10;99.90
18153;DHT22;9202;51.578;7.734;2023-04-24T03:04:28;11.00;99.90
18153;DHT22;9202;51.578;7.734;2023-04-24T03:06:31;11.00;99.90
18153;DHT22;9202;51.578;7.734;2023-04-24T03:08:34;11.00;99.90
18153;DHT22;9202;51.578;7.734;2023-04-24T03:10:37;10.90;99.90
18153;DHT22;9202;51.578;7.734;2023-04-24T03:12:39;10.90;99.90
18153;DHT22;9202;51.578;7.734;2023-04-24T03:14:42;10.80;99.90
18153;DHT22;9202;51.578;7.734;2023-04-24T03:16:44;10.80;99.90
18153;DHT22;9202;51.578;7.734;2023-04-24T03:18:47;10.80;99.90
18153;DHT22;9202;51.578;7.734;2023-04-24T03:20:50;10.70;99.90
18153;DHT22;9202;51.578;7.734;2023-04-24T03:22:53;10.70;99.90
18153;DHT22;9202;51.578;7.734;2023-04-24T03:24:55;10.60;99.90
18153;DHT22;9202;51.578;7.734;2023-04-24T03:26:58;10.50;99.90
18153;DHT22;9202;51.578;7.734;2023-04-24T03:29:03;10.50;99.90
18153;DHT22;9202;51.578;7.734;2023-04-24T03:31:06;10.40;99.90
18153;DHT22;9202;51.578;7.734;2023-04-24T03:33:10;10.40;99.90
18153;DHT22;9202;51.578;7.734;2023-04-24T03:35:14;10.30;99.90
18153;DHT22;9202;51.578;7.734;2023-04-24T03:37:17;10.20;99.90
18153;DHT22;9202;51.578;7.734;2023-04-24T03:39:22;10.10;99.90
18153;DHT22;9202;51.578;7.734;2023-04-24T03:41:26;10.00;99.90
18153;DHT22;9202;51.578;7.734;2023-04-24T03:43:30;10.00;99.90
18153;DHT22;9202;51.578;7.734;2023-04-24T03:45:35;9.90;99.90
18153;DHT22;9202;51.578;7.734;2023-04-24T03:47:37;9.90;99.90
18153;DHT22;9202;51.578;7.734;2023-04-24T03:49:40;9.80;99.90
18153;DHT22;9202;51.578;7.734;2023-04-24T03:51:43;9.80;99.90
18153;DHT22;9202;51.578;7.734;2023-04-24T03:53:48;9.80;99.90
18153;DHT22;9202;51.578;7.734;2023-04-24T03:55:52;9.80;99.90
18153;DHT22;9202;51.578;7.734;2023-04-24T03:57:55;9.90;99.90
18153;DHT22;9202;51.578;7.734;2023-04-24T03:59:58;9.90;99.90
18153;DHT22;9202;51.578;7.734;2023-04-24T04:02:01;9.90;99.90
18153;DHT22;9202;51.578;7.734;2023-04-24T04:04:03;9.90;99.90
18153;DHT22;9202;51.578;7.734;2023-04-24T04:06:07;9.90;99.90
18153;DHT22;9202;51.578;7.734;2023-04-24T04:08:10;9.90;99.90
18153;DHT22;9202;51.578;7.734;2023-04-24T04:10:12;9.90;99.90
18153;DHT22;9202;51.578;7.734;2023-04-24T04:12:16;9.90;99.90
18153;DHT22;9202;51.578;7.734;2023-04-24T04:14:18;9.90;99.90
18153;DHT22;9202;51.578;7.734;2023-04-24T04:16:22;9.90;99.90
18153;DHT22;9202;51.578;7.734;2023-04-24T04:18:26;9.90;99.90
18153;DHT22;9202;51.578;7.734;2023-04-24T04:20:29;9.90;99.90
18153;DHT22;9202;51.578;7.734;2023-04-24T04:22:32;10.00;99.90
18153;DHT22;9202;51.578;7.734;2023-04-24T04:24:36;9.90;99.90
18153;DHT22;9202;51.578;7.734;2023-04-24T04:26:39;10.00;99.90
18153;DHT22;9202;51.578;7.734;2023-04-24T04:28:44;10.00;99.90
18153;DHT22;9202;51.578;7.734;2023-04-24T04:33:01;10.10;99.90
18153;DHT22;9202;51.578;7.734;2023-04-24T04:35:05;10.00;99.90
18153;DHT22;9202;51.578;7.734;2023-04-24T04:37:08;10.10;99.90
18153;DHT22;9202;51.578;7.734;2023-04-24T04:39:14;10.10;99.90
18153;DHT22;9202;51.578;7.734;2023-04-24T04:41:20;10.10;99.90
18153;DHT22;9202;51.578;7.734;2023-04-24T04:43:22;10.10;99.90
18153;DHT22;9202;51.578;7.734;2023-04-24T04:45:26;10.10;99.90
18153;DHT22;9202;51.578;7.734;2023-04-24T04:47:31;10.10;99.90
18153;DHT22;9202;51.578;7.734;2023-04-24T04:49:34;10.20;99.90
18153;DHT22;9202;51.578;7.734;2023-04-24T04:51:39;10.20;99.90
18153;DHT22;9202;51.578;7.734;2023-04-24T04:53:43;10.20;99.90
18153;DHT22;9202;51.578;7.734;2023-04-24T04:55:46;10.30;99.90
18153;DHT22;9202;51.578;7.734;2023-04-24T04:57:51;10.30;99.90
18153;DHT22;9202;51.578;7.734;2023-04-24T04:59:54;10.30;99.90
18153;DHT22;9202;51.578;7.734;2023-04-24T05:01:58;10.30;99.90
18153;DHT22;9202;51.578;7.734;2023-04-24T05:04:01;10.30;99.90
18153;DHT22;9202;51.578;7.734;2023-04-24T05:06:05;10.30;99.90
18153;DHT22;9202;51.578;7.734;2023-04-24T05:08:10;10.40;99.90
18153;DHT22;9202;51.578;7.734;2023-04-24T05:10:14;10.30;99.90
18153;DHT22;9202;51.578;7.734;2023-04-24T05:12:17;10.30;99.90
18153;DHT22;9202;51.578;7.734;2023-04-24T05:14:21;10.30;99.90
18153;DHT22;9202;51.578;7.734;2023-04-24T05:16:24;10.20;99.90
18153;DHT22;9202;51.578;7.734;2023-04-24T05:18:27;10.20;99.90
18153;DHT22;9202;51.578;7.734;2023-04-24T05:20:30;10.20;99.90
18153;DHT22;9202;51.578;7.734;2023-04-24T05:22:33;10.30;99.90
18153;DHT22;9202;51.578;7.734;2023-04-24T05:24:35;10.20;99.90
18153;DHT22;9202;51.578;7.734;2023-04-24T05:26:40;10.30;99.90
18153;DHT22;9202;51.578;7.734;2023-04-24T05:28:43;10.30;99.90
18153;DHT22;9202;51.578;7.734;2023-04-24T05:30:47;10.20;99.90
18153;DHT22;9202;51.578;7.734;2023-04-24T05:32:49;10.30;99.90
18153;DHT22;9202;51.578;7.734;2023-04-24T05:34:52;10.20;99.90
18153;DHT22;9202;51.578;7.734;2023-04-24T05:36:55;10.20;99.90
18153;DHT22;9202;51.578;7.734;2023-04-24T05:38:57;10.20;99.90
18153;DHT22;9202;51.578;7.734;2023-04-24T05:41:00;10.20;99.90
18153;DHT22;9202;51.578;7.734;2023-04-24T05:43:03;10.20;99.90
18153;DHT22;9202;51.578;7.734;2023-04-24T05:45:09;10.20;99.90
18153;DHT22;9202;51.578;7.734;2023-04-24T05:47:13;10.20;99.90
18153;DHT22;9202;51.578;7.734;2023-04-24T05:49:19;10.10;99.90
18153;DHT22;9202;51.578;7.734;2023-04-24T05:51:25;10.10;99.90
18153;DHT22;9202;51.578;7.734;2023-04-24T05:53:29;10.10;99.90
18153;DHT22;9202;51.578;7.734;2023-04-24T05:55:34;10.20;99.90
18153;DHT22;9202;51.578;7.734;2023-04-24T05:57:41;10.10;99.90
18153;DHT22;9202;51.578;7.734;2023-04-24T05:59:47;10.10;99.90
18153;DHT22;9202;51.578;7.734;2023-04-24T06:01:52;10.20;99.90
18153;DHT22;9202;51.578;7.734;2023-04-24T06:03:58;10.20;99.90
18153;DHT22;9202;51.578;7.734;2023-04-24T06:06:02;10.30;99.90
18153;DHT22;9202;51.578;7.734;2023-04-24T06:08:08;10.30;99.90
18153;DHT22;9202;51.578;7.734;2023-04-24T06:10:15;10.20;99.90
18153;DHT22;9202;51.578;7.734;2023-04-24T06:12:19;10.30;99.90
18153;DHT22;9202;51.578;7.734;2023-04-24T06:14:23;10.30;99.90
18153;DHT22;9202;51.578;7.734;2023-04-24T06:16:28;10.20;99.90
18153;DHT22;9202;51.578;7.734;2023-04-24T06:18:34;10.20;99.90
18153;DHT22;9202;51.578;7.734;2023-04-24T06:20:37;10.30;99.90
18153;DHT22;9202;51.578;7.734;2023-04-24T06:22:39;10.30;99.90
18153;DHT22;9202;51.578;7.734;2023-04-24T06:24:42;10.10;99.90
18153;DHT22;9202;51.578;7.734;2023-04-24T06:26:44;10.10;99.90
18153;DHT22;9202;51.578;7.734;2023-04-24T06:28:47;10.00;99.90
18153;DHT22;9202;51.578;7.734;2023-04-24T06:30:50;10.00;99.90
18153;DHT22;9202;51.578;7.734;2023-04-24T06:35:08;10.00;99.90
18153;DHT22;9202;51.578;7.734;2023-04-24T06:37:11;9.90;99.90
18153;DHT22;9202;51.578;7.734;2023-04-24T06:39:14;9.90;99.90
18153;DHT22;9202;51.578;7.734;2023-04-24T06:41:16;9.90;99.90
18153;DHT22;9202;51.578;7.734;2023-04-24T06:43:19;10.00;99.90
18153;DHT22;9202;51.578;7.734;2023-04-24T06:45:22;10.00;99.90
18153;DHT22;9202;51.578;7.734;2023-04-24T06:47:24;10.00;99.90
18153;DHT22;9202;51.578;7.734;2023-04-24T06:49:27;10.10;99.90
18153;DHT22;9202;51.578;7.734;2023-04-24T06:51:30;10.00;99.90
18153;DHT22;9202;51.578;7.734;2023-04-24T06:53:35;10.00;99.90
18153;DHT22;9202;51.578;7.734;2023-04-24T06:55:37;10.10;99.90
18153;DHT22;9202;51.578;7.734;2023-04-24T06:57:40;10.10;99.90
18153;DHT22;9202;51.578;7.734;2023-04-24T06:59:44;10.10;99.90
18153;DHT22;9202;51.578;7.734;2023-04-24T07:01:49;10.10;99.90
18153;DHT22;9202;51.578;7.734;2023-04-24T07:03:52;10.10;99.90
18153;DHT22;9202;51.578;7.734;2023-04-24T07:05:55;10.10;99.90
18153;DHT22;9202;51.578;7.734;2023-04-24T07:07:59;10.10;99.90
18153;DHT22;9202;51.578;7.734;2023-04-24T07:10:02;10.10;99.90
18153;DHT22;9202;51.578;7.734;2023-04-24T07:12:06;10.00;99.90
18153;DHT22;9202;51.578;7.734;2023-04-24T07:14:09;10.00;99.90
18153;DHT22;9202;51.578;7.734;2023-04-24T07:16:11;10.10;99.90
18153;DHT22;9202;51.578;7.734;2023-04-24T07:18:14;10.20;99.90
18153;DHT22;9202;51.578;7.734;2023-04-24T07:20:16;10.20;99.90
18153;DHT22;9202;51.578;7.734;2023-04-24T07:22:19;10.30;99.90
18153;DHT22;9202;51.578;7.734;2023-04-24T07:24:22;10.30;99.90
18153;DHT22;9202;51.578;7.734;2023-04-24T07:26:26;10.10;99.90
18153;DHT22;9202;51.578;7.734;2023-04-24T07:28:29;10.20;99.90
18153;DHT22;9202;51.578;7.734;2023-04-24T07:30:32;10.20;99.90
18153;DHT22;9202;51.578;7.734;2023-04-24T07:32:35;10.20;99.90
18153;DHT22;9202;51.578;7.734;2023-04-24T07:34:38;10.20;99.90
18153;DHT22;9202;51.578;7.734;2023-04-24T07:36:41;10.30;99.90
18153;DHT22;9202;51.578;7.734;2023-04-24T07:38:43;10.20;99.90
18153;DHT22;9202;51.578;7.734;2023-04-24T07:40:46;10.30;99.90
18153;DHT22;9202;51.578;7.734;2023-04-24T07:42:51;10.40;99.90
18153;DHT22;9202;51.578;7.734;2023-04-24T07:44:54;10.30;99.90
18153;DHT22;9202;51.578;7.734;2023-04-24T07:46:56;10.20;99.90
18153;DHT22;9202;51.578;7.734;2023-04-24T07:48:59;10.10;99.90
18153;DHT22;9202;51.578;7.734;2023-04-24T07:51:04;10.00;99.90
18153;DHT22;9202;51.578;7.734;2023-04-24T07:53:07;10.00;99.90
18153;DHT22;9202;51.578;7.734;2023-04-24T07:55:09;10.10;99.90
18153;DHT22;9202;51.578;7.734;2023-04-24T07:57:12;10.10;99.90
18153;DHT22;9202;51.578;7.734;2023-04-24T07:59:18;10.00;99.90
18153;DHT22;9202;51.578;7.734;2023-04-24T08:01:23;10.00;99.90
18153;DHT22;9202;51.578;7.734;2023-04-24T08:03:26;10.00;99.90
18153;DHT22;9202;51.578;7.734;2023-04-24T08:05:29;9.90;99.90
18153;DHT22;9202;51.578;7.734;2023-04-24T08:07:32;9.80;99.90
18153;DHT22;9202;51.578;7.734;2023-04-24T08:09:35;9.80;99.90
18153;DHT22;9202;51.578;7.734;2023-04-24T08:11:37;9.80;99.90
18153;DHT22;9202;51.578;7.734;2023-04-24T08:13:40;9.80;99.90
18153;DHT22;9202;51.578;7.734;2023-04-24T08:15:43;9.90;99.90
18153;DHT22;9202;51.578;7.734;2023-04-24T08:17:45;9.90;99.90
18153;DHT22;9202;51.578;7.734;2023-04-24T08:19:48;10.00;99.90
18153;DHT22;9202;51.578;7.734;2023-04-24T08:21:52;10.00;99.90
18153;DHT22;9202;51.578;7.734;2023-04-24T08:23:55;10.00;99.90
18153;DHT22;9202;51.578;7.734;2023-04-24T08:25:57;9.90;99.90
18153;DHT22;9202;51.578;7.734;2023-04-24T08:28:00;9.90;99.90
18153;DHT22;9202;51.578;7.734;2023-04-24T08:30:04;9.80;99.90
18153;DHT22;9202;51.578;7.734;2023-04-24T08:32:07;9.80;99.90
18153;DHT22;9202;51.578;7.734;2023-04-24T08:34:10;9.70;99.90
18153;DHT22;9202;51.578;7.734;2023-04-24T08:36:12;9.70;99.90
18153;DHT22;9202;51.578;7.734;2023-04-24T08:38:15;9.60;99.90
18153;DHT22;9202;51.578;7.734;2023-04-24T08:40:17;9.60;99.90
18153;DHT22;9202;51.578;7.734;2023-04-24T08:42:21;9.60;99.90
18153;DHT22;9202;51.578;7.734;2023-04-24T08:44:23;9.70;99.90
18153;DHT22;9202;51.578;7.734;2023-04-24T08:46:26;9.80;99.90
18153;DHT22;9202;51.578;7.734;2023-04-24T08:48:29;9.70;99.90
18153;DHT22;9202;51.578;7.734;2023-04-24T08:50:33;9.80;99.90
18153;DHT22;9202;51.578;7.734;2023-04-24T08:52:36;9.70;99.90
18153;DHT22;9202;51.578;7.734;2023-04-24T08:54:39;9.70;99.90
18153;DHT22;9202;51.578;7.734;2023-04-24T08:56:43;9.70;99.90
18153;DHT22;9202;51.578;7.734;2023-04-24T08:58:46;9.80;99.90
18153;DHT22;9202;51.578;7.734;2023-04-24T09:00:49;9.80;99.90
18153;DHT22;9202;51.578;7.734;2023-04-24T09:02:52;9.70;99.90
18153;DHT22;9202;51.578;7.734;2023-04-24T09:04:55;9.80;99.90
18153;DHT22;9202;51.578;7.734;2023-04-24T09:06:58;9.90;99.90
18153;DHT22;9202;51.578;7.734;2023-04-24T09:09:02;9.90;99.90
18153;DHT22;9202;51.578;7.734;2023-04-24T09:11:08;9.90;99.90
18153;DHT22;9202;51.578;7.734;2023-04-24T09:15:27;9.70;99.90
18153;DHT22;9202;51.578;7.734;2023-04-24T09:17:31;9.50;99.90
18153;DHT22;9202;51.578;7.734;2023-04-24T09:19:34;9.40;99.90
18153;DHT22;9202;51.578;7.734;2023-04-24T09:21:36;9.40;99.90
18153;DHT22;9202;51.578;7.734;2023-04-24T09:23:39;9.40;99.90
18153;DHT22;9202;51.578;7.734;2023-04-24T09:25:41;9.40;99.90
18153;DHT22;9202;51.578;7.734;2023-04-24T09:27:44;9.30;99.90
18153;DHT22;9202;51.578;7.734;2023-04-24T09:29:53;9.30;99.90
18153;DHT22;9202;51.578;7.734;2023-04-24T09:31:56;9.20;99.90
18153;DHT22;9202;51.578;7.734;2023-04-24T09:33:59;9.10;99.90
18153;DHT22;9202;51.578;7.734;2023-04-24T09:36:14;9.10;99.90
18153;DHT22;9202;51.578;7.734;2023-04-24T09:38:38;9.10;99.90
18153;DHT22;9202;51.578;7.734;2023-04-24T09:40:46;9.00;99.90
18153;DHT22;9202;51.578;7.734;2023-04-24T09:42:52;9.10;99.90
18153;DHT22;9202;51.578;7.734;2023-04-24T09:44:55;9.00;99.90
18153;DHT22;9202;51.578;7.734;2023-04-24T09:46:59;9.00;99.90
18153;DHT22;9202;51.578;7.734;2023-04-24T09:49:07;9.10;99.90
18153;DHT22;9202;51.578;7.734;2023-04-24T09:51:11;9.00;99.90
18153;DHT22;9202;51.578;7.734;2023-04-24T09:53:14;9.00;99.90
18153;DHT22;9202;51.578;7.734;2023-04-24T09:55:18;9.00;99.90
18153;DHT22;9202;51.578;7.734;2023-04-24T09:57:21;8.90;99.90
18153;DHT22;9202;51.578;7.734;2023-04-24T09:59:23;8.80;99.90
18153;DHT22;9202;51.578;7.734;2023-04-24T10:01:32;8.80;99.90
18153;DHT22;9202;51.578;7.734;2023-04-24T10:03:35;8.80;99.90
18153;DHT22;9202;51.578;7.734;2023-04-24T10:05:38;8.90;99.90
18153;DHT22;9202;51.578;7.734;2023-04-24T10:07:41;8.90;99.90
18153;DHT22;9202;51.578;7.734;2023-04-24T10:09:45;8.90;99.90
18153;DHT22;9202;51.578;7.734;2023-04-24T10:11:48;8.80;99.90
18153;DHT22;9202;51.578;7.734;2023-04-24T10:13:51;8.90;99.90
18153;DHT22;9202;51.578;7.734;2023-04-24T10:15:54;8.90;99.90
18153;DHT22;9202;51.578;7.734;2023-04-24T10:19:59;9.00;99.90
18153;DHT22;9202;51.578;7.734;2023-04-24T10:22:02;9.00;99.90
18153;DHT22;9202;51.578;7.734;2023-04-24T10:24:08;9.10;99.90
18153;DHT22;9202;51.578;7.734;2023-04-24T10:26:10;9.10;99.90
18153;DHT22;9202;51.578;7.734;2023-04-24T10:28:16;9.10;99.90
18153;DHT22;9202;51.578;7.734;2023-04-24T10:30:20;9.10;99.90
18153;DHT22;9202;51.578;7.734;2023-04-24T10:32:22;9.00;99.90
18153;DHT22;9202;51.578;7.734;2023-04-24T10:34:25;9.00;99.90
18153;DHT22;9202;51.578;7.734;2023-04-24T10:36:27;8.90;99.90
18153;DHT22;9202;51.578;7.734;2023-04-24T10:38:33;8.90;99.90
18153;DHT22;9202;51.578;7.734;2023-04-24T10:40:37;8.80;99.90
18153;DHT22;9202;51.578;7.734;2023-04-24T10:42:40;8.70;99.90
18153;DHT22;9202;51.578;7.734;2023-04-24T10:44:43;8.60;99.90
18153;DHT22;9202;51.578;7.734;2023-04-24T10:46:46;8.60;99.90
18153;DHT22;9202;51.578;7.734;2023-04-24T10:48:52;8.60;99.90
18153;DHT22;9202;51.578;7.734;2023-04-24T10:53:15;8.30;99.90
18153;DHT22;9202;51.578;7.734;2023-04-24T10:55:33;8.30;99.90
18153;DHT22;9202;51.578;7.734;2023-04-24T10:57:37;8.30;99.90
18153;DHT22;9202;51.578;7.734;2023-04-24T10:59:40;8.20;99.90
18153;DHT22;9202;51.578;7.734;2023-04-24T11:01:43;8.20;99.90
18153;DHT22;9202;51.578;7.734;2023-04-24T11:03:53;8.20;99.90
18153;DHT22;9202;51.578;7.734;2023-04-24T11:08:14;8.10;99.90
18153;DHT22;9202;51.578;7.734;2023-04-24T11:10:25;8.00;99.90
18153;DHT22;9202;51.578;7.734;2023-04-24T11:12:28;8.00;99.90
18153;DHT22;9202;51.578;7.734;2023-04-24T11:14:35;7.90;99.90
18153;DHT22;9202;51.578;7.734;2023-04-24T11:16:38;8.00;99.90
18153;DHT22;9202;51.578;7.734;2023-04-24T11:18:42;8.00;99.90
18153;DHT22;9202;51.578;7.734;2023-04-24T11:20:47;8.00;99.90
18153;DHT22;9202;51.578;7.734;2023-04-24T11:22:49;8.10;99.90
18153;DHT22;9202;51.578;7.734;2023-04-24T11:24:54;8.20;99.90
18153;DHT22;9202;51.578;7.734;2023-04-24T11:27:00;8.20;99.90
18153;DHT22;9202;51.578;7.734;2023-04-24T11:29:06;8.20;99.90
18153;DHT22;9202;51.578;7.734;2023-04-24T11:33:29;8.20;99.90
18153;DHT22;9202;51.578;7.734;2023-04-24T11:35:35;8.20;99.90
18153;DHT22;9202;51.578;7.734;2023-04-24T11:37:41;8.30;99.90
18153;DHT22;9202;51.578;7.734;2023-04-24T11:39:43;8.30;99.90
18153;DHT22;9202;51.578;7.734;2023-04-24T11:41:46;8.40;99.90
18153;DHT22;9202;51.578;7.734;2023-04-24T11:43:49;8.30;99.90
18153;DHT22;9202;51.578;7.734;2023-04-24T11:45:52;8.20;99.90
18153;DHT22;9202;51.578;7.734;2023-04-24T11:47:55;8.20;99.90
18153;DHT22;9202;51.578;7.734;2023-04-24T11:49:59;8.30;99.90
18153;DHT22;9202;51.578;7.734;2023-04-24T11:52:03;8.20;99.90
18153;DHT22;9202;51.578;7.734;2023-04-24T11:54:07;8.20;99.90
18153;DHT22;9202;51.578;7.734;2023-04-24T11:56:11;8.30;99.90
18153;DHT22;9202;51.578;7.734;2023-04-24T11:58:15;8.30;99.90
18153;DHT22;9202;51.578;7.734;2023-04-24T12:00:22;8.40;99.90
18153;DHT22;9202;51.578;7.734;2023-04-24T12:02:25;8.50;99.90
18153;DHT22;9202;51.578;7.734;2023-04-24T12:04:37;8.50;99.90
18153;DHT22;9202;51.578;7.734;2023-04-24T12:06:34;8.50;99.90
18153;DHT22;9202;51.578;7.734;2023-04-24T12:08:37;8.60;99.90
18153;DHT22;9202;51.578;7.734;2023-04-24T12:10:40;8.70;99.90
18153;DHT22;9202;51.578;7.734;2023-04-24T12:12:42;8.60;99.90
18153;DHT22;9202;51.578;7.734;2023-04-24T12:14:48;8.50;99.90
18153;DHT22;9202;51.578;7.734;2023-04-24T12:16:51;8.50;99.90
18153;DHT22;9202;51.578;7.734;2023-04-24T12:18:53;8.60;99.90
18153;DHT22;9202;51.578;7.734;2023-04-24T12:21:01;8.50;99.90
18153;DHT22;9202;51.578;7.734;2023-04-24T12:23:02;8.60;99.90
18153;DHT22;9202;51.578;7.734;2023-04-24T12:25:05;8.80;99.90
18153;DHT22;9202;51.578;7.734;2023-04-24T12:27:08;8.80;99.90
18153;DHT22;9202;51.578;7.734;2023-04-24T12:29:19;8.80;99.90
18153;DHT22;9202;51.578;7.734;2023-04-24T12:31:22;8.70;99.90
18153;DHT22;9202;51.578;7.734;2023-04-24T12:33:25;8.70;99.90
18153;DHT22;9202;51.578;7.734;2023-04-24T12:35:29;8.70;99.90
18153;DHT22;9202;51.578;7.734;2023-04-24T12:37:32;8.70;99.90
18153;DHT22;9202;51.578;7.734;2023-04-24T12:39:36;8.70;99.90
18153;DHT22;9202;51.578;7.734;2023-04-24T12:41:38;8.70;99.90
18153;DHT22;9202;51.578;7.734;2023-04-24T12:43:52;8.70;99.90
18153;DHT22;9202;51.578;7.734;2023-04-24T12:45:56;8.70;99.90
18153;DHT22;9202;51.578;7.734;2023-04-24T12:47:59;8.60;99.90
18153;DHT22;9202;51.578;7.734;2023-04-24T12:50:01;8.70;99.90
18153;DHT22;9202;51.578;7.734;2023-04-24T12:52:04;8.60;99.90
18153;DHT22;9202;51.578;7.734;2023-04-24T12:56:28;8.70;99.90
18153;DHT22;9202;51.578;7.734;2023-04-24T12:58:30;8.70;99.90
18153;DHT22;9202;51.578;7.734;2023-04-24T13:00:33;8.80;99.90
18153;DHT22;9202;51.578;7.734;2023-04-24T13:02:36;8.90;99.90
18153;DHT22;9202;51.578;7.734;2023-04-24T13:04:43;9.10;99.90
18153;DHT22;9202;51.578;7.734;2023-04-24T13:07:00;9.20;99.90
18153;DHT22;9202;51.578;7.734;2023-04-24T13:09:13;9.10;99.90
18153;DHT22;9202;51.578;7.734;2023-04-24T13:11:16;9.20;99.90
18153;DHT22;9202;51.578;7.734;2023-04-24T13:13:18;9.20;99.90
18153;DHT22;9202;51.578;7.734;2023-04-24T13:15:21;9.10;99.90
18153;DHT22;9202;51.578;7.734;2023-04-24T13:17:23;9.40;99.90
18153;DHT22;9202;51.578;7.734;2023-04-24T13:19:26;9.00;99.90
18153;DHT22;9202;51.578;7.734;2023-04-24T13:21:29;8.90;99.90
18153;DHT22;9202;51.578;7.734;2023-04-24T13:23:32;9.00;99.90
18153;DHT22;9202;51.578;7.734;2023-04-24T13:25:35;9.00;99.90
18153;DHT22;9202;51.578;7.734;2023-04-24T13:27:40;9.00;99.90
18153;DHT22;9202;51.578;7.734;2023-04-24T13:29:43;9.10;99.90
18153;DHT22;9202;51.578;7.734;2023-04-24T13:31:46;9.10;99.90
18153;DHT22;9202;51.578;7.734;2023-04-24T13:33:48;9.10;99.90
18153;DHT22;9202;51.578;7.734;2023-04-24T13:35:51;9.10;99.90
18153;DHT22;9202;51.578;7.734;2023-04-24T13:37:53;9.00;99.90
18153;DHT22;9202;51.578;7.734;2023-04-24T13:39:56;9.10;99.90